createdAt,value
2022-08-07T00:01:42.960Z,9.10
2022-08-07T00:03:55.291Z,4.95
2022-08-07T00:06:29.602Z,3.17
2022-08-07T00:09:16.188Z,5.78
2022-08-07T00:11:54.252Z,4.72
2022-08-07T00:14:25.452Z,2.85
2022-08-07T00:16:59.270Z,2.45
2022-08-07T00:19:59.621Z,2.83
2022-08-07T00:22:24.592Z,4.63
2022-08-07T00:25:03.443Z,5.93
2022-08-07T00:27:51.940Z,3.10
2022-08-07T00:30:27.670Z,5.82
2022-08-07T00:32:58.387Z,3.92
2022-08-07T00:35:29.692Z,5.25
2022-08-07T00:37:58.305Z,5.20
2022-08-07T00:40:39.502Z,3.47
2022-08-07T00:43:09.633Z,4.47
2022-08-07T00:45:39.121Z,5.40
2022-08-07T00:48:11.115Z,5.18
2022-08-07T00:50:50.242Z,9.27
2022-08-07T00:53:20.437Z,4.75
2022-08-07T00:56:02.684Z,5.95
2022-08-07T00:58:32.674Z,3.83
2022-08-07T01:01:00.293Z,3.95
2022-08-07T01:03:56.981Z,3.40
2022-08-07T01:06:16.980Z,4.10
2022-08-07T01:08:53.461Z,3.50
2022-08-07T01:12:28.038Z,1.80
2022-08-07T01:14:11.120Z,2.15
2022-08-07T01:16:39.055Z,3.17
2022-08-07T01:19:19.238Z,3.90
2022-08-07T01:21:53.466Z,2.83
2022-08-07T01:24:30.588Z,6.95
2022-08-07T01:27:00.134Z,2.58
2022-08-07T01:29:31.444Z,3.55
2022-08-07T01:32:05.271Z,2.97
2022-08-07T01:34:35.222Z,4.60
2022-08-07T01:37:27.975Z,2.97
2022-08-07T01:40:02.515Z,3.95
2022-08-07T01:42:38.269Z,3.92
2022-08-07T01:45:17.923Z,4.03
2022-08-07T01:48:29.616Z,3.63
2022-08-07T01:50:42.940Z,9.73
2022-08-07T01:53:20.777Z,3.33
2022-08-07T01:55:58.586Z,4.85
2022-08-07T01:58:33.349Z,3.35
2022-08-07T02:01:09.744Z,2.58
2022-08-07T02:03:51.294Z,6.75
2022-08-07T02:06:31.325Z,2.10
2022-08-07T02:09:06.207Z,5.82
2022-08-07T02:12:03.341Z,3.05
2022-08-07T02:14:36.403Z,3.80
2022-08-07T02:17:16.661Z,3.92
2022-08-07T02:20:04.211Z,3.35
2022-08-07T02:22:40.956Z,1.58
2022-08-07T02:25:13.785Z,2.72
2022-08-07T02:27:52.150Z,2.78
2022-08-07T02:30:21.728Z,3.40
2022-08-07T02:33:00.706Z,4.15
2022-08-07T02:36:28.206Z,5.35
2022-08-07T02:38:33.062Z,4.43
2022-08-07T02:41:05.292Z,1.42
2022-08-07T02:43:39.614Z,5.72
2022-08-07T02:46:09.789Z,3.88
2022-08-07T02:48:38.521Z,4.53
2022-08-07T02:51:14.400Z,4.30
2022-08-07T02:54:03.200Z,3.42
2022-08-07T02:56:33.387Z,4.90
2022-08-07T02:59:04.443Z,2.83
2022-08-07T03:01:36.644Z,4.03
2022-08-07T03:04:13.898Z,2.00
2022-08-07T03:06:45.746Z,3.63
2022-08-07T03:09:43.838Z,2.83
2022-08-07T03:12:08.117Z,3.40
2022-08-07T03:14:52.285Z,4.22
2022-08-07T03:17:22.163Z,3.75
2022-08-07T03:19:55.144Z,4.47
2022-08-07T03:22:29.556Z,2.75
2022-08-07T03:25:00.148Z,2.20
2022-08-07T03:27:42.212Z,4.15
2022-08-07T03:30:24.415Z,5.30
2022-08-07T03:32:58.421Z,6.50
2022-08-07T03:35:44.035Z,2.63
2022-08-07T03:38:20.960Z,5.00
2022-08-07T03:40:57.476Z,1.02
2022-08-07T03:43:32.285Z,3.10
2022-08-07T03:46:04.006Z,6.20
2022-08-07T03:49:01.908Z,3.20
2022-08-07T03:51:47.593Z,6.97
2022-08-07T03:54:36.538Z,6.60
2022-08-07T03:57:11.215Z,4.95
2022-08-07T04:00:01.829Z,6.30
2022-08-07T04:02:47.239Z,8.05
2022-08-07T04:05:28.718Z,5.63
2022-08-07T04:08:12.351Z,2.45
2022-08-07T04:10:42.331Z,3.63
2022-08-07T04:13:14.980Z,3.10
2022-08-07T04:15:45.736Z,3.42
2022-08-07T04:18:59.067Z,2.45
2022-08-07T04:21:07.236Z,1.35
2022-08-07T04:23:43.540Z,3.92
2022-08-07T04:26:25.165Z,2.65
2022-08-07T04:28:57.047Z,1.58
2022-08-07T04:31:38.667Z,4.72
2022-08-07T04:34:24.219Z,2.88
2022-08-07T04:37:01.621Z,3.58
2022-08-07T04:39:35.584Z,3.80
2022-08-07T04:42:05.323Z,1.65
2022-08-07T04:44:34.331Z,4.90
2022-08-07T04:47:09.996Z,1.15
2022-08-07T04:49:57.852Z,1.77
2022-08-07T04:52:51.045Z,2.65
2022-08-07T04:58:07.373Z,1.30
2022-08-07T04:58:34.842Z,1.60
2022-08-07T05:01:18.111Z,2.10
2022-08-07T05:04:07.764Z,2.53
2022-08-07T05:06:51.702Z,1.80
2022-08-07T05:09:45.489Z,3.83
2022-08-07T05:12:27.363Z,2.92
2022-08-07T05:15:23.092Z,2.55
2022-08-07T05:17:58.435Z,2.53
2022-08-07T05:20:38.229Z,2.72
2022-08-07T05:23:15.332Z,3.33
2022-08-07T05:26:11.859Z,2.00
2022-08-07T05:31:04.954Z,1.98
2022-08-07T05:33:37.106Z,2.83
2022-08-07T05:36:12.190Z,4.53
2022-08-07T05:39:01.077Z,1.08
2022-08-07T05:42:02.686Z,2.80
2022-08-07T05:44:29.685Z,0.98
2022-08-07T05:47:01.552Z,1.55
2022-08-07T05:49:46.584Z,1.40
2022-08-07T05:52:20.061Z,3.45
2022-08-07T05:54:55.915Z,1.38
2022-08-07T05:57:30.086Z,2.00
2022-08-07T06:00:03.082Z,1.60
2022-08-07T06:02:41.795Z,3.08
2022-08-07T06:05:15.616Z,0.95
2022-08-07T06:08:29.647Z,1.27
2022-08-07T06:10:39.160Z,1.60
2022-08-07T06:13:13.587Z,0.80
2022-08-07T06:15:45.322Z,1.42
2022-08-07T06:18:21.609Z,1.30
2022-08-07T06:22:16.545Z,6.88
2022-08-07T06:24:36.930Z,1.45
2022-08-07T06:26:29.410Z,0.80
2022-08-07T06:29:01.183Z,4.90
2022-08-07T06:31:47.289Z,1.20
2022-08-07T06:34:33.025Z,1.08
2022-08-07T06:37:02.695Z,1.85
2022-08-07T06:40:16.702Z,1.02
2022-08-07T06:42:37.270Z,0.40
2022-08-07T06:45:30.054Z,1.45
2022-08-07T06:48:02.135Z,2.13
2022-08-07T06:50:43.355Z,2.40
2022-08-07T06:56:15.506Z,1.08
2022-08-07T07:00:14.488Z,1.00
2022-08-07T07:01:44.099Z,0.70
2022-08-07T07:04:32.618Z,0.55
2022-08-07T07:07:10.666Z,0.93
2022-08-07T07:09:47.621Z,1.10
2022-08-07T07:12:30.681Z,0.90
2022-08-07T07:15:05.071Z,1.23
2022-08-07T07:17:45.211Z,1.58
2022-08-07T07:20:18.442Z,1.08
2022-08-07T07:24:05.460Z,2.45
2022-08-07T07:26:35.673Z,1.50
2022-08-07T07:28:48.697Z,1.40
2022-08-07T07:31:27.208Z,0.63
2022-08-07T07:34:03.573Z,0.95
2022-08-07T07:36:33.655Z,0.88
2022-08-07T07:39:04.392Z,1.40
2022-08-07T07:41:50.860Z,0.82
2022-08-07T07:44:26.780Z,3.60
2022-08-07T07:47:04.355Z,1.55
2022-08-07T07:50:33.946Z,1.02
2022-08-07T07:52:34.559Z,1.58
2022-08-07T07:55:04.456Z,1.45
2022-08-07T07:57:51.540Z,1.38
2022-08-07T08:00:29.542Z,0.82
2022-08-07T08:03:05.189Z,1.15
2022-08-07T08:05:42.893Z,2.08
2022-08-07T08:08:33.982Z,0.60
2022-08-07T08:11:09.359Z,1.17
2022-08-07T08:13:53.931Z,0.47
2022-08-07T08:16:29.798Z,0.43
2022-08-07T08:19:17.459Z,0.57
2022-08-07T08:22:08.123Z,0.95
2022-08-07T08:25:18.657Z,1.55
2022-08-07T08:27:57.515Z,2.75
2022-08-07T08:30:34.820Z,2.10
2022-08-07T08:33:15.113Z,1.83
2022-08-07T08:35:47.095Z,2.58
2022-08-07T08:38:20.768Z,1.10
2022-08-07T08:40:55.041Z,0.20
2022-08-07T08:43:42.069Z,2.75
2022-08-07T08:46:17.179Z,0.80
2022-08-07T08:48:55.935Z,1.55
2022-08-07T08:52:00.737Z,0.73
2022-08-07T08:54:36.055Z,3.97
2022-08-07T08:57:14.226Z,0.65
2022-08-07T08:59:50.944Z,1.85
2022-08-07T09:02:34.854Z,1.70
2022-08-07T09:05:23.620Z,1.25
2022-08-07T09:08:04.895Z,2.90
2022-08-07T09:10:38.045Z,2.10
2022-08-07T09:16:22.556Z,1.05
2022-08-07T09:19:03.458Z,0.45
2022-08-07T09:22:09.948Z,4.10
2022-08-07T09:24:58.949Z,0.43
2022-08-07T09:27:54.735Z,1.13
2022-08-07T09:30:25.452Z,0.82
2022-08-07T09:33:24.207Z,6.07
2022-08-07T09:36:04.796Z,0.43
2022-08-07T09:38:49.997Z,0.73
2022-08-07T09:41:43.103Z,1.45
2022-08-07T09:44:32.756Z,1.52
2022-08-07T09:47:50.787Z,0.95
2022-08-07T09:50:18.614Z,1.30
2022-08-07T09:52:51.863Z,2.05
2022-08-07T09:55:29.485Z,2.50
2022-08-07T09:58:32.588Z,3.55
2022-08-07T10:01:15.025Z,1.75
2022-08-07T10:04:32.459Z,2.92
2022-08-07T10:07:34.483Z,1.17
2022-08-07T10:10:24.152Z,0.85
2022-08-07T10:13:55.518Z,0.77
2022-08-07T10:16:30.073Z,1.67
2022-08-07T10:19:15.524Z,1.02
2022-08-07T10:22:15.939Z,1.80
2022-08-07T10:25:13.964Z,0.68
2022-08-07T10:28:08.167Z,2.25
2022-08-07T10:30:53.546Z,0.60
2022-08-07T10:34:04.938Z,0.70
2022-08-07T10:36:43.069Z,0.80
2022-08-07T10:39:29.289Z,0.43
2022-08-07T10:42:30.900Z,2.83
2022-08-07T10:45:19.555Z,0.95
2022-08-07T10:48:22.167Z,1.77
2022-08-07T10:50:55.864Z,1.42
2022-08-07T10:53:41.876Z,2.53
2022-08-07T10:56:31.350Z,0.57
2022-08-07T10:59:13.558Z,2.17
2022-08-07T11:02:05.222Z,0.90
2022-08-07T11:04:55.531Z,0.70
2022-08-07T11:08:00.273Z,0.93
2022-08-07T11:10:20.401Z,2.78
2022-08-07T11:13:02.139Z,1.75
2022-08-07T11:15:35.550Z,1.67
2022-08-07T11:18:14.929Z,2.13
2022-08-07T11:20:52.265Z,5.88
2022-08-07T11:23:30.282Z,1.80
2022-08-07T11:26:13.592Z,3.80
2022-08-07T11:28:55.564Z,3.80
2022-08-07T11:31:33.216Z,0.88
2022-08-07T11:34:16.404Z,2.33
2022-08-07T11:36:56.601Z,1.67
2022-08-07T11:40:01.053Z,0.77
2022-08-07T11:42:45.057Z,1.10
2022-08-07T11:45:35.522Z,1.42
2022-08-07T11:48:29.353Z,1.15
2022-08-07T11:51:40.790Z,1.00
2022-08-07T11:54:22.189Z,1.25
2022-08-07T11:57:05.895Z,2.05
2022-08-07T12:00:12.653Z,1.23
2022-08-07T12:03:41.589Z,2.45
2022-08-07T12:06:40.305Z,1.52
2022-08-07T12:09:23.242Z,1.65
2022-08-07T12:12:09.220Z,2.65
2022-08-07T12:14:55.780Z,1.80
2022-08-07T12:17:59.040Z,2.65
2022-08-07T12:20:35.398Z,0.95
2022-08-07T12:24:07.758Z,1.75
2022-08-07T12:26:47.036Z,1.67
2022-08-07T12:29:37.664Z,2.58
2022-08-07T12:32:14.753Z,1.35
2022-08-07T12:34:49.361Z,1.17
2022-08-07T12:37:23.387Z,0.90
2022-08-07T12:39:57.286Z,0.55
2022-08-07T12:42:28.557Z,1.33
2022-08-07T12:45:07.602Z,1.50
2022-08-07T12:47:43.931Z,1.40
2022-08-07T12:50:38.552Z,2.28
2022-08-07T12:53:17.715Z,1.13
2022-08-07T12:56:03.670Z,1.95
2022-08-07T12:58:39.243Z,2.15
2022-08-07T13:01:19.637Z,4.30
2022-08-07T13:04:04.816Z,2.75
2022-08-07T13:07:03.153Z,1.95
2022-08-07T13:10:21.489Z,1.23
2022-08-07T13:15:31.605Z,1.40
2022-08-07T13:18:25.860Z,1.52
2022-08-07T13:21:02.742Z,1.73
2022-08-07T13:24:01.601Z,1.60
2022-08-07T13:26:37.125Z,1.17
2022-08-07T13:29:15.778Z,1.10
2022-08-07T13:31:57.459Z,0.88
2022-08-07T13:34:37.645Z,4.07
2022-08-07T13:37:19.580Z,0.50
2022-08-07T13:40:34.884Z,1.52
2022-08-07T13:42:48.808Z,1.58
2022-08-07T13:46:10.872Z,1.00
2022-08-07T13:48:27.796Z,1.50
2022-08-07T13:51:02.051Z,2.67
2022-08-07T13:53:59.749Z,1.40
2022-08-07T13:56:35.963Z,1.73
2022-08-07T13:59:13.218Z,2.15
2022-08-07T14:02:03.885Z,1.05
2022-08-07T14:04:35.804Z,1.20
2022-08-07T14:07:09.275Z,0.93
2022-08-07T14:10:12.451Z,0.65
2022-08-07T14:12:41.528Z,0.77
2022-08-07T14:15:18.473Z,0.90
2022-08-07T14:18:24.041Z,3.50
2022-08-07T14:20:42.315Z,0.82
2022-08-07T14:23:31.226Z,1.30
2022-08-07T14:26:10.715Z,2.17
2022-08-07T14:29:06.071Z,1.30
2022-08-07T14:31:42.741Z,1.95
2022-08-07T14:34:29.549Z,1.15
2022-08-07T14:36:59.523Z,1.55
2022-08-07T14:40:16.042Z,1.95
2022-08-07T14:42:25.276Z,1.27
2022-08-07T14:47:47.089Z,0.70
2022-08-07T14:50:19.779Z,2.42
2022-08-07T14:52:50.847Z,0.75
2022-08-07T14:55:20.077Z,1.40
2022-08-07T14:57:58.014Z,1.15
2022-08-07T15:00:31.174Z,1.50
2022-08-07T15:03:00.315Z,1.08
2022-08-07T15:05:55.295Z,0.80
2022-08-07T15:08:34.728Z,2.08
2022-08-07T15:11:06.349Z,2.08
2022-08-07T15:13:38.057Z,1.13
2022-08-07T15:16:11.048Z,0.85
2022-08-07T15:18:45.497Z,0.55
2022-08-07T15:27:09.071Z,0.40
2022-08-07T15:30:10.911Z,0.73
2022-08-07T15:32:39.990Z,0.68
2022-08-07T15:38:29.775Z,1.00
2022-08-07T15:44:00.520Z,1.05
2022-08-07T15:46:32.384Z,1.27
2022-08-07T15:49:14.198Z,2.35
2022-08-07T15:54:39.383Z,0.47
2022-08-07T15:57:28.346Z,1.02
2022-08-07T16:00:04.338Z,1.42
2022-08-07T16:02:40.113Z,1.33
2022-08-07T16:05:15.525Z,1.33
2022-08-07T16:08:30.578Z,0.90
2022-08-07T16:10:38.921Z,0.63
2022-08-07T16:13:59.272Z,1.38
2022-08-07T16:16:48.785Z,1.40
2022-08-07T16:19:59.641Z,3.05
2022-08-07T16:22:55.511Z,0.73
2022-08-07T16:25:56.108Z,2.55
2022-08-07T16:30:07.438Z,1.20
2022-08-07T16:31:57.094Z,1.00
2022-08-07T16:34:37.241Z,1.33
2022-08-07T16:38:04.442Z,1.80
2022-08-07T16:40:57.334Z,3.47
2022-08-07T16:44:05.865Z,1.30
2022-08-07T16:47:12.443Z,1.55
2022-08-07T16:50:35.616Z,2.38
2022-08-07T16:54:02.259Z,4.13
2022-08-07T16:56:20.504Z,5.00
2022-08-07T16:59:11.095Z,3.65
2022-08-07T17:01:55.653Z,5.68
2022-08-07T17:04:34.650Z,2.75
2022-08-07T17:07:13.494Z,4.45
2022-08-07T17:10:06.346Z,2.55
2022-08-07T17:12:44.338Z,2.47
2022-08-07T17:15:21.523Z,3.05
2022-08-07T17:18:03.265Z,3.05
2022-08-07T17:20:35.703Z,2.10
2022-08-07T17:23:34.061Z,4.50
2022-08-07T17:26:24.209Z,2.45
2022-08-07T17:29:07.709Z,3.55
2022-08-07T17:32:03.073Z,2.35
2022-08-07T17:34:57.193Z,3.05
2022-08-07T17:38:06.016Z,3.30
2022-08-07T17:40:30.655Z,2.60
2022-08-07T17:43:15.106Z,2.17
2022-08-07T17:45:55.743Z,3.88
2022-08-07T17:48:34.866Z,3.53
2022-08-07T17:51:23.099Z,5.75
2022-08-07T17:54:06.659Z,3.28
2022-08-07T17:56:49.965Z,4.03
2022-08-07T17:59:35.620Z,5.53
2022-08-07T18:02:11.569Z,3.38
2022-08-07T18:04:56.083Z,4.53
2022-08-07T18:07:37.680Z,1.15
2022-08-07T18:10:29.033Z,2.13
2022-08-07T18:13:41.135Z,6.15
2022-08-07T18:16:30.952Z,6.70
2022-08-07T18:21:10.229Z,3.03
2022-08-07T18:22:11.500Z,2.30
2022-08-07T18:24:51.444Z,3.50
2022-08-07T18:27:59.283Z,1.50
2022-08-07T18:30:36.735Z,1.98
2022-08-07T18:33:54.983Z,3.13
2022-08-07T18:36:36.400Z,5.67
2022-08-07T18:40:08.614Z,4.57
2022-08-07T18:42:16.883Z,7.07
2022-08-07T18:45:45.111Z,4.90
2022-08-07T18:48:01.087Z,2.72
2022-08-07T18:53:39.338Z,2.85
2022-08-07T18:56:35.095Z,2.55
2022-08-07T18:59:46.681Z,3.90
2022-08-07T19:02:33.985Z,3.60
2022-08-07T19:05:16.081Z,1.52
2022-08-07T19:08:04.004Z,1.65
2022-08-07T19:10:51.380Z,2.67
2022-08-07T19:13:27.504Z,2.95
2022-08-07T19:17:00.526Z,2.72
2022-08-07T19:19:00.565Z,2.47
2022-08-07T19:21:51.132Z,2.70
2022-08-07T19:24:30.659Z,1.98
2022-08-07T19:29:02.951Z,5.60
2022-08-07T19:31:04.543Z,4.93
2022-08-07T19:32:52.484Z,4.13
2022-08-07T19:35:33.237Z,6.45
2022-08-07T19:38:15.741Z,2.33
2022-08-07T19:40:50.658Z,4.18
2022-08-07T19:43:44.222Z,2.88
2022-08-07T19:46:14.641Z,3.05
2022-08-07T19:48:53.492Z,2.85
2022-08-07T19:51:52.453Z,4.20
2022-08-07T19:54:33.180Z,4.72
2022-08-07T19:58:02.804Z,8.90
2022-08-07T19:59:54.960Z,6.00
2022-08-07T20:02:30.509Z,13.02
2022-08-07T20:05:03.297Z,12.77
2022-08-07T20:07:47.872Z,17.73
2022-08-07T20:10:37.167Z,11.70
2022-08-07T20:13:23.533Z,11.00
2022-08-07T20:15:58.132Z,5.72
2022-08-07T20:18:32.273Z,7.13
2022-08-07T20:21:21.614Z,7.82
2022-08-07T20:23:58.046Z,9.48
2022-08-07T20:26:32.513Z,26.30
2022-08-07T20:29:17.097Z,24.20
2022-08-07T20:32:02.092Z,13.18
2022-08-07T20:34:50.296Z,17.48
2022-08-07T20:37:25.438Z,19.63
2022-08-07T20:40:03.094Z,16.20
2022-08-07T20:42:35.441Z,18.83
2022-08-07T20:45:33.602Z,20.75
2022-08-07T20:47:57.786Z,24.00
2022-08-07T20:50:30.293Z,25.02
2022-08-07T20:52:58.823Z,31.90
2022-08-07T20:55:26.873Z,36.92
2022-08-07T20:58:03.575Z,40.05
2022-08-07T21:00:42.967Z,28.60
2022-08-07T21:03:14.472Z,34.17
2022-08-07T21:05:56.354Z,25.45
2022-08-07T21:08:37.887Z,27.10
2022-08-07T21:11:11.933Z,26.08
2022-08-07T21:14:20.251Z,12.68
2022-08-07T21:16:56.229Z,19.98
2022-08-07T21:19:51.072Z,22.48
2022-08-07T21:22:28.448Z,22.67
2022-08-07T21:25:11.981Z,15.60
2022-08-07T21:28:02.224Z,24.63
2022-08-07T21:30:44.047Z,16.85
2022-08-07T21:33:19.176Z,22.83
2022-08-07T21:36:05.302Z,16.65
2022-08-07T21:38:49.879Z,16.70
2022-08-07T21:41:24.639Z,11.65
2022-08-07T21:43:57.523Z,13.70
2022-08-07T21:46:31.585Z,16.13
2022-08-07T21:49:14.618Z,11.70
2022-08-07T21:51:55.702Z,12.60
2022-08-07T21:54:46.048Z,12.02
2022-08-07T21:57:44.456Z,8.55
2022-08-07T22:00:22.826Z,13.88
2022-08-07T22:03:00.068Z,12.43
2022-08-07T22:05:44.230Z,14.10
2022-08-07T22:08:14.446Z,13.73
2022-08-07T22:10:50.417Z,10.32
2022-08-07T22:13:24.224Z,9.32
2022-08-07T22:16:38.583Z,12.43
2022-08-07T22:19:03.413Z,12.35
2022-08-07T22:22:05.267Z,10.32
2022-08-07T22:24:36.055Z,12.48
2022-08-07T22:27:12.905Z,6.70
2022-08-07T22:29:49.823Z,16.15
2022-08-07T22:32:26.865Z,13.40
2022-08-07T22:34:58.479Z,8.30
2022-08-07T22:38:04.524Z,8.13
2022-08-07T22:40:28.957Z,11.07
2022-08-07T22:43:03.941Z,9.95
2022-08-07T22:46:40.662Z,11.75
2022-08-07T22:48:55.248Z,6.88
2022-08-07T22:51:49.217Z,7.85
2022-08-07T22:54:49.290Z,9.20
2022-08-07T22:57:41.875Z,7.63
2022-08-07T23:00:17.016Z,10.38
2022-08-07T23:03:01.834Z,9.60
2022-08-07T23:06:15.717Z,7.60
2022-08-07T23:08:55.994Z,4.33
2022-08-07T23:11:41.312Z,6.70
2022-08-07T23:14:26.018Z,8.40
2022-08-07T23:17:15.556Z,8.82
2022-08-07T23:20:10.300Z,7.72
2022-08-07T23:22:48.791Z,7.40
2022-08-07T23:25:32.615Z,7.47
2022-08-07T23:28:21.918Z,8.63
2022-08-07T23:31:13.824Z,4.22
2022-08-07T23:34:23.710Z,6.10
2022-08-07T23:37:29.358Z,4.68
2022-08-07T23:40:24.206Z,7.00
2022-08-07T23:43:16.716Z,7.82
2022-08-07T23:46:03.002Z,6.15
2022-08-07T23:49:04.871Z,5.18
2022-08-07T23:52:59.451Z,5.78
2022-08-07T23:54:44.236Z,5.50
2022-08-07T23:57:23.774Z,8.48
